Time;durP1;ratioP1;P1;durP2;ratioP2;P2;SDS_P1;SDS_P2;PMS_P1;PMS_P2;Temp;Humidity;BMP_temperature;BMP_pressure;BME280_temperature;BME280_humidity;BME280_pressure;Samples;Min_cycle;Max_cycle;Signal;HPM_P1;HPM_P2
2021/04/13 00:01:07;;;;;;;5.37;1.60;;;;;;;;;;5069384;28;20275;-76
2021/04/13 00:03:33;;;;;;;4.57;1.37;;;;;;;;;;5065730;28;20278;-76
2021/04/13 00:05:58;;;;;;;3.67;1.60;;;;;;;;;;5064835;28;20275;-76
2021/04/13 00:08:24;;;;;;;3.97;1.60;;;;;;;;;;5045087;28;20033;-76
2021/04/13 00:10:51;;;;;;;3.70;1.50;;;;;;;;;;5066086;28;20058;-76
2021/04/13 00:13:18;;;;;;;5.33;1.77;;;;;;;;;;5063946;28;20030;-76
2021/04/13 00:15:45;;;;;;;5.07;1.93;;;;;;;;;;5063360;28;20279;-76
2021/04/13 00:18:11;;;;;;;5.27;1.50;;;;;;;;;;5066375;28;20290;-76
2021/04/13 00:20:40;;;;;;;3.67;1.70;;;;;;;;;;5064124;28;20362;-76
2021/04/13 00:23:06;;;;;;;6.40;1.80;;;;;;;;;;5066581;28;20287;-76
2021/04/13 00:25:35;;;;;;;4.30;1.50;;;;;;;;;;5059757;28;20683;-76
2021/04/13 00:28:01;;;;;;;6.13;1.80;;;;;;;;;;5065088;28;20432;-76
2021/04/13 00:30:29;;;;;;;7.97;1.50;;;;;;;;;;5059546;28;20275;-76
2021/04/13 00:32:58;;;;;;;4.53;1.87;;;;;;;;;;5059195;28;20029;-75
2021/04/13 00:35:33;;;;;;;3.87;1.53;;;;;;;;;;5069838;28;20724;-75
2021/04/13 00:38:15;;;;;;;4.70;1.60;;;;;;;;;;5067696;28;20318;-75
2021/04/13 00:40:41;;;;;;;5.10;1.50;;;;;;;;;;5060816;28;20287;-76
2021/04/13 00:43:07;;;;;;;3.73;1.70;;;;;;;;;;5064873;28;20725;-76
2021/04/13 00:45:35;;;;;;;5.00;1.30;;;;;;;;;;5067739;28;20262;-76
2021/04/13 00:48:01;;;;;;;6.00;1.93;;;;;;;;;;5064963;28;20021;-76
2021/04/13 00:50:35;;;;;;;3.67;1.60;;;;;;;;;;5062006;28;20275;-76
2021/04/13 00:53:03;;;;;;;6.20;1.40;;;;;;;;;;5046839;28;20392;-76
2021/04/13 00:55:30;;;;;;;4.83;1.73;;;;;;;;;;5071119;28;20298;-76
2021/04/13 00:58:16;;;;;;;4.90;2.03;;;;;;;;;;5069581;28;20282;-76
2021/04/13 01:00:46;;;;;;;4.97;1.50;;;;;;;;;;5065201;28;20279;-76
2021/04/13 01:05:54;;;;;;;6.07;1.50;;;;;;;;;;5052475;28;20798;-69
2021/04/13 01:08:40;;;;;;;4.23;1.40;;;;;;;;;;5067412;28;20278;-69
2021/04/13 01:11:15;;;;;;;4.60;1.50;;;;;;;;;;5067428;28;20289;-68
2021/04/13 01:13:43;;;;;;;4.40;1.70;;;;;;;;;;5070039;28;20309;-69
2021/04/13 01:16:10;;;;;;;4.83;1.70;;;;;;;;;;5065345;28;20284;-69
2021/04/13 01:18:37;;;;;;;4.97;1.60;;;;;;;;;;5066922;28;20294;-68
2021/04/13 01:21:19;;;;;;;5.47;1.60;;;;;;;;;;5065804;28;20299;-69
2021/04/13 01:23:54;;;;;;;5.03;1.77;;;;;;;;;;5066271;28;20286;-69
2021/04/13 01:26:20;;;;;;;4.43;1.63;;;;;;;;;;5062573;28;20275;-69
2021/04/13 01:28:47;;;;;;;4.37;1.50;;;;;;;;;;5066581;28;20293;-69
2021/04/13 01:34:07;;;;;;;3.25;1.33;;;;;;;;;;5065819;28;20282;-69
2021/04/13 01:36:34;;;;;;;8.77;1.77;;;;;;;;;;5064010;28;20025;-69
2021/04/13 01:39:04;;;;;;;6.27;1.67;;;;;;;;;;5068692;28;20554;-69
2021/04/13 01:41:57;;;;;;;4.30;1.67;;;;;;;;;;5064011;28;20301;-68
2021/04/13 01:44:43;;;;;;;5.03;1.83;;;;;;;;;;5065402;28;20270;-69
2021/04/13 01:47:10;;;;;;;6.17;1.83;;;;;;;;;;5063456;28;20365;-69
2021/04/13 01:49:37;;;;;;;4.73;1.50;;;;;;;;;;5068242;28;20285;-69
2021/04/13 01:52:07;;;;;;;5.97;2.53;;;;;;;;;;5068798;28;20270;-69
2021/04/13 01:54:33;;;;;;;4.03;1.57;;;;;;;;;;5063682;28;20288;-69
2021/04/13 01:56:58;;;;;;;4.70;1.70;;;;;;;;;;5069251;28;20669;-69
2021/04/13 01:59:30;;;;;;;4.63;1.83;;;;;;;;;;5068230;28;20036;-69
2021/04/13 02:01:58;;;;;;;5.47;1.80;;;;;;;;;;5055497;28;20021;-68
2021/04/13 02:04:29;;;;;;;8.10;2.00;;;;;;;;;;5044425;28;20041;-69
2021/04/13 02:10:07;;;;;;;3.43;1.50;;;;;;;;;;5017235;28;20271;-69
2021/04/13 02:12:36;;;;;;;3.72;1.55;;;;;;;;;;5045055;28;20363;-68
2021/04/13 02:15:07;;;;;;;4.03;1.87;;;;;;;;;;5044777;28;20083;-69
2021/04/13 02:17:36;;;;;;;3.57;1.80;;;;;;;;;;5038150;28;20291;-69
2021/04/13 02:20:03;;;;;;;4.10;1.77;;;;;;;;;;5042991;28;20411;-69
2021/04/13 02:22:29;;;;;;;4.37;1.60;;;;;;;;;;5045014;28;20268;-69
2021/04/13 02:24:59;;;;;;;4.50;1.70;;;;;;;;;;5040747;28;20259;-69
2021/04/13 02:27:27;;;;;;;5.33;1.80;;;;;;;;;;5029164;28;20036;-69
2021/04/13 02:29:54;;;;;;;6.00;1.80;;;;;;;;;;5030763;28;20649;-69
2021/04/13 02:32:27;;;;;;;4.33;1.80;;;;;;;;;;5041471;28;20260;-69
2021/04/13 02:34:53;;;;;;;5.93;1.63;;;;;;;;;;5026007;28;20272;-69
2021/04/13 02:37:25;;;;;;;3.60;1.60;;;;;;;;;;5023714;28;20291;-69
2021/04/13 02:39:52;;;;;;;6.07;1.83;;;;;;;;;;5044389;28;20893;-69
2021/04/13 02:42:20;;;;;;;5.60;2.47;;;;;;;;;;5037615;28;20029;-69
2021/04/13 02:44:59;;;;;;;5.33;2.17;;;;;;;;;;5044833;28;20279;-70
2021/04/13 02:47:26;;;;;;;6.20;2.10;;;;;;;;;;5037755;28;20674;-69
2021/04/13 02:49:51;;;;;;;7.20;2.10;;;;;;;;;;5040258;28;20279;-69
2021/04/13 02:52:20;;;;;;;6.40;2.60;;;;;;;;;;5032575;28;20604;-69
2021/04/13 02:54:49;;;;;;;5.37;1.83;;;;;;;;;;5031897;28;20108;-69
2021/04/13 02:57:19;;;;;;;4.73;1.97;;;;;;;;;;5029151;28;20291;-69
2021/04/13 02:59:45;;;;;;;6.87;2.20;;;;;;;;;;5034945;28;20290;-69
2021/04/13 03:02:14;;;;;;;4.33;1.93;;;;;;;;;;5041655;28;20283;-69
2021/04/13 03:04:44;;;;;;;7.40;2.33;;;;;;;;;;5040580;28;20049;-69
2021/04/13 03:07:14;;;;;;;6.60;2.03;;;;;;;;;;5037171;28;20762;-69
2021/04/13 03:09:40;;;;;;;5.10;1.97;;;;;;;;;;5045811;28;20284;-70
2021/04/13 03:12:06;;;;;;;4.43;1.80;;;;;;;;;;5051226;28;20265;-69
2021/04/13 03:14:40;;;;;;;5.23;1.80;;;;;;;;;;5042495;28;20320;-69
2021/04/13 03:17:07;;;;;;;5.57;2.00;;;;;;;;;;5044058;28;20287;-69
2021/04/13 03:19:33;;;;;;;7.27;2.50;;;;;;;;;;5047470;28;20283;-69
2021/04/13 03:22:02;;;;;;;7.03;2.07;;;;;;;;;;5053711;28;20282;-69
2021/04/13 03:24:30;;;;;;;9.23;1.93;;;;;;;;;;5047809;28;20024;-69
2021/04/13 03:27:00;;;;;;;10.33;1.87;;;;;;;;;;5048870;28;20608;-69
2021/04/13 03:29:28;;;;;;;8.10;2.93;;;;;;;;;;5049182;28;20276;-69
2021/04/13 03:31:55;;;;;;;12.20;2.40;;;;;;;;;;5051193;28;20267;-69
2021/04/13 03:34:21;;;;;;;7.47;2.20;;;;;;;;;;5049722;28;20717;-70
2021/04/13 03:36:47;;;;;;;9.57;2.07;;;;;;;;;;5050822;28;20259;-69
2021/04/13 03:39:14;;;;;;;6.27;1.77;;;;;;;;;;5038250;28;20330;-69
2021/04/13 03:41:44;;;;;;;7.70;1.80;;;;;;;;;;5047903;28;20801;-69
2021/04/13 03:44:10;;;;;;;5.00;2.10;;;;;;;;;;5051594;28;20345;-70
2021/04/13 03:46:37;;;;;;;5.23;1.53;;;;;;;;;;5049446;28;20263;-69
2021/04/13 03:49:06;;;;;;;5.53;2.00;;;;;;;;;;5048003;28;20025;-69
2021/04/13 03:51:33;;;;;;;7.33;1.97;;;;;;;;;;5048324;28;20283;-69
2021/04/13 03:53:59;;;;;;;8.07;2.33;;;;;;;;;;5046184;28;21690;-69
2021/04/13 03:56:25;;;;;;;4.63;2.17;;;;;;;;;;5044586;28;20263;-69
2021/04/13 03:59:00;;;;;;;4.57;1.80;;;;;;;;;;5047519;28;20017;-69
2021/04/13 04:01:29;;;;;;;4.83;1.90;;;;;;;;;;5045019;28;20272;-69
2021/04/13 04:03:59;;;;;;;7.30;1.50;;;;;;;;;;5048346;28;20286;-70
2021/04/13 04:06:41;;;;;;;3.90;1.53;;;;;;;;;;5089700;28;20762;-69
2021/04/13 04:09:06;;;;;;;;;;;;;;;;;;5068863;28;20281;-69
2021/04/13 04:11:32;;;;;;;4.37;1.67;;;;;;;;;;5086430;28;19912;-69
2021/04/13 04:13:58;;;;;;;5.17;1.60;;;;;;;;;;5087372;28;20059;-69
2021/04/13 04:16:27;;;;;;;4.27;1.90;;;;;;;;;;5083745;28;20754;-69
2021/04/13 04:18:52;;;;;;;8.13;2.60;;;;;;;;;;5087707;28;20036;-69
2021/04/13 04:21:20;;;;;;;3.97;1.77;;;;;;;;;;5082019;28;20694;-69
2021/04/13 04:23:51;;;;;;;5.27;2.50;;;;;;;;;;5083527;28;20073;-69
2021/04/13 04:26:20;;;;;;;11.47;2.80;;;;;;;;;;5081485;28;20278;-69
2021/04/13 04:28:46;;;;;;;8.20;2.03;;;;;;;;;;5085507;28;20283;-69
2021/04/13 04:31:36;;;;;;;5.40;1.67;;;;;;;;;;5089116;28;20281;-69
2021/04/13 04:34:21;;;;;;;2.57;1.37;;;;;;;;;;5079866;28;20040;-69
2021/04/13 04:36:50;;;;;;;5.97;1.90;;;;;;;;;;5084397;28;20286;-69
2021/04/13 04:39:36;;;;;;;4.57;1.70;;;;;;;;;;5085223;28;20339;-69
2021/04/13 04:42:10;;;;;;;8.53;2.00;;;;;;;;;;5068744;28;20305;-69
2021/04/13 04:44:35;;;;;;;5.30;1.70;;;;;;;;;;5084974;28;20393;-69
2021/04/13 04:47:01;;;;;;;6.33;1.87;;;;;;;;;;5089859;28;20849;-69
2021/04/13 04:49:26;;;;;;;3.83;1.60;;;;;;;;;;5064502;28;20101;-69
2021/04/13 04:51:53;;;;;;;4.50;1.57;;;;;;;;;;5066971;28;20432;-69
2021/04/13 04:54:20;;;;;;;7.07;1.93;;;;;;;;;;5084202;28;20114;-69
2021/04/13 04:56:46;;;;;;;3.53;1.60;;;;;;;;;;5083749;28;20258;-69
2021/04/13 04:59:11;;;;;;;5.23;2.10;;;;;;;;;;5086954;28;20309;-69
2021/04/13 05:01:37;;;;;;;6.37;2.10;;;;;;;;;;5086240;28;20682;-69
2021/04/13 05:04:02;;;;;;;7.73;2.50;;;;;;;;;;5088379;28;20132;-69
2021/04/13 05:06:28;;;;;;;7.63;2.40;;;;;;;;;;5084032;28;20038;-69
2021/04/13 05:08:54;;;;;;;5.10;1.83;;;;;;;;;;5085152;28;20028;-69
2021/04/13 05:11:19;;;;;;;21.27;2.90;;;;;;;;;;5083050;28;20110;-69
2021/04/13 05:13:45;;;;;;;8.77;2.20;;;;;;;;;;5082599;28;20280;-69
2021/04/13 05:16:10;;;;;;;4.47;1.67;;;;;;;;;;5081925;28;20123;-69
2021/04/13 05:18:36;;;;;;;6.77;1.90;;;;;;;;;;5088166;28;20028;-70
2021/04/13 05:21:01;;;;;;;8.17;2.10;;;;;;;;;;5085920;28;20465;-69
2021/04/13 05:23:27;;;;;;;6.30;2.03;;;;;;;;;;5088438;28;20065;-71
2021/04/13 05:25:52;;;;;;;9.97;2.23;;;;;;;;;;5079251;28;20115;-69
2021/04/13 05:28:18;;;;;;;8.83;2.23;;;;;;;;;;5085639;28;20059;-69
2021/04/13 05:30:43;;;;;;;5.80;1.60;;;;;;;;;;5080292;28;20063;-69
2021/04/13 05:33:09;;;;;;;9.47;2.47;;;;;;;;;;5090888;28;20325;-69
2021/04/13 05:35:35;;;;;;;5.33;2.10;;;;;;;;;;5086454;28;20128;-69
2021/04/13 05:38:03;;;;;;;5.33;2.73;;;;;;;;;;5084923;28;20139;-69
2021/04/13 05:40:32;;;;;;;5.53;1.83;;;;;;;;;;5083594;28;20028;-69
2021/04/13 05:42:58;;;;;;;6.83;2.00;;;;;;;;;;5077541;28;20316;-70
2021/04/13 05:45:25;;;;;;;8.57;2.00;;;;;;;;;;5081806;28;20761;-69
2021/04/13 05:47:51;;;;;;;4.77;1.90;;;;;;;;;;5088629;28;20016;-69
2021/04/13 05:50:19;;;;;;;6.57;1.90;;;;;;;;;;5083605;28;20280;-69
2021/04/13 05:52:44;;;;;;;4.83;1.53;;;;;;;;;;5087269;28;20107;-69
2021/04/13 05:55:09;;;;;;;5.10;2.10;;;;;;;;;;5074206;28;20899;-69
2021/04/13 05:57:35;;;;;;;5.90;1.57;;;;;;;;;;5088016;28;20040;-69
2021/04/13 06:00:01;;;;;;;4.33;1.27;;;;;;;;;;5085980;28;20269;-70
2021/04/13 06:02:29;;;;;;;8.23;1.67;;;;;;;;;;5086020;28;20085;-69
2021/04/13 06:04:54;;;;;;;7.03;1.63;;;;;;;;;;5082213;28;20385;-70
2021/04/13 06:07:20;;;;;;;6.30;1.50;;;;;;;;;;5086280;28;20498;-70
2021/04/13 06:09:45;;;;;;;3.87;1.00;;;;;;;;;;5084451;28;20032;-71
2021/04/13 06:12:12;;;;;;;3.83;1.20;;;;;;;;;;5088590;28;20484;-70
2021/04/13 06:14:37;;;;;;;2.63;0.70;;;;;;;;;;5087443;28;20499;-70
2021/04/13 06:17:03;;;;;;;2.97;1.00;;;;;;;;;;5087169;28;20032;-70
2021/04/13 06:19:30;;;;;;;2.63;1.00;;;;;;;;;;5064748;28;20039;-69
2021/04/13 06:21:56;;;;;;;4.10;1.07;;;;;;;;;;5087611;28;20055;-69
2021/04/13 06:24:21;;;;;;;6.77;1.70;;;;;;;;;;5086910;28;20313;-68
2021/04/13 06:26:47;;;;;;;10.30;1.53;;;;;;;;;;5083543;28;20521;-69
2021/04/13 06:29:12;;;;;;;2.00;1.10;;;;;;;;;;5085844;28;20047;-69
2021/04/13 06:31:37;;;;;;;5.53;1.13;;;;;;;;;;5084466;28;20032;-70
2021/04/13 06:34:03;;;;;;;3.27;1.20;;;;;;;;;;5090213;28;20109;-71
2021/04/13 06:36:28;;;;;;;4.50;1.40;;;;;;;;;;5090485;28;20591;-69
2021/04/13 06:38:57;;;;;;;4.37;1.10;;;;;;;;;;5074278;28;20033;-69
2021/04/13 06:41:41;;;;;;;3.70;1.30;;;;;;;;;;5083459;28;20114;-69
2021/04/13 06:44:14;;;;;;;3.47;1.10;;;;;;;;;;5090869;28;20278;-69
2021/04/13 06:46:58;;;;;;;6.00;1.17;;;;;;;;;;5088102;28;20309;-69
2021/04/13 06:49:32;;;;;;;7.30;1.40;;;;;;;;;;5058900;28;20393;-69
2021/04/13 06:51:57;;;;;;;5.60;1.00;;;;;;;;;;5068173;28;20292;-69
2021/04/13 06:54:36;;;;;;;5.27;1.50;;;;;;;;;;5084019;28;20290;-71
2021/04/13 06:57:20;;;;;;;5.57;1.23;;;;;;;;;;5079979;28;20051;-73
2021/04/13 06:59:52;;;;;;;6.03;1.23;;;;;;;;;;5087716;28;20289;-73
2021/04/13 07:02:22;;;;;;;6.47;0.90;;;;;;;;;;5087865;28;20438;-75
2021/04/13 07:04:56;;;;;;;4.10;1.20;;;;;;;;;;5086209;28;20048;-74
2021/04/13 07:07:21;;;;;;;4.97;1.57;;;;;;;;;;5083321;28;20383;-74
2021/04/13 07:10:06;;;;;;;5.77;1.40;;;;;;;;;;5087694;28;20037;-74
2021/04/13 07:12:51;;;;;;;4.97;1.50;;;;;;;;;;5085284;28;20024;-74
2021/04/13 07:15:25;;;;;;;6.20;1.30;;;;;;;;;;5083323;28;20067;-74
2021/04/13 07:17:53;;;;;;;4.73;1.10;;;;;;;;;;5071662;28;20047;-73
2021/04/13 07:20:23;;;;;;;2.80;1.10;;;;;;;;;;5083027;28;20116;-72
2021/04/13 07:23:01;;;;;;;2.80;0.70;;;;;;;;;;5071777;28;20058;-72
2021/04/13 07:25:34;;;;;;;4.87;1.00;;;;;;;;;;5081828;28;20032;-71
2021/04/13 07:28:12;;;;;;;4.03;1.00;;;;;;;;;;5091265;28;20480;-70
2021/04/13 07:30:49;;;;;;;2.43;0.90;;;;;;;;;;5083261;28;20455;-70
2021/04/13 07:33:19;;;;;;;4.53;1.00;;;;;;;;;;5091166;28;20034;-70
2021/04/13 07:35:44;;;;;;;2.83;0.70;;;;;;;;;;5083912;28;20032;-70
2021/04/13 07:38:12;;;;;;;4.37;0.90;;;;;;;;;;5091492;28;20357;-71
2021/04/13 07:40:39;;;;;;;6.43;1.37;;;;;;;;;;5084519;28;20024;-71
2021/04/13 07:43:12;;;;;;;3.07;1.00;;;;;;;;;;5090528;28;20462;-73
2021/04/13 07:45:56;;;;;;;5.60;1.00;;;;;;;;;;5087477;28;20032;-73
2021/04/13 07:48:29;;;;;;;2.57;0.70;;;;;;;;;;5090918;28;20036;-74
2021/04/13 07:50:57;;;;;;;4.47;0.80;;;;;;;;;;5089795;28;20392;-74
2021/04/13 07:53:35;;;;;;;8.53;1.30;;;;;;;;;;5090963;28;20059;-74
2021/04/13 07:56:17;;;;;;;4.40;1.27;;;;;;;;;;5090281;28;20063;-74
2021/04/13 07:59:03;;;;;;;7.23;1.17;;;;;;;;;;5080224;28;20407;-75
2021/04/13 08:01:28;;;;;;;2.83;0.60;;;;;;;;;;5040720;28;20059;-72
2021/04/13 08:03:54;;;;;;;5.60;0.97;;;;;;;;;;5090274;28;20492;-73
2021/04/13 08:06:28;;;;;;;3.60;0.80;;;;;;;;;;5087677;28;20032;-74
2021/04/13 08:09:05;;;;;;;2.40;0.80;;;;;;;;;;5090582;28;20042;-75
2021/04/13 08:11:31;;;;;;;5.60;0.90;;;;;;;;;;5078120;28;20119;-74
2021/04/13 08:13:56;;;;;;;5.60;0.80;;;;;;;;;;5071970;28;20106;-75
2021/04/13 08:16:37;;;;;;;2.97;0.63;;;;;;;;;;5080880;28;20031;-74
2021/04/13 08:19:24;;;;;;;5.47;0.80;;;;;;;;;;5090785;28;20035;-71
2021/04/13 08:22:00;;;;;;;3.83;1.00;;;;;;;;;;5083061;28;20031;-72
2021/04/13 08:24:41;;;;;;;2.93;0.60;;;;;;;;;;5082317;28;20048;-71
2021/04/13 08:27:18;;;;;;;5.83;1.20;;;;;;;;;;5086399;28;20095;-72
2021/04/13 08:29:48;;;;;;;6.57;1.40;;;;;;;;;;5086302;28;20041;-70
2021/04/13 08:35:11;;;;;;;5.93;0.80;;;;;;;;;;5085306;28;20046;-69
2021/04/13 08:37:52;;;;;;;6.32;0.80;;;;;;;;;;5089798;28;20038;-70
2021/04/13 08:40:23;;;;;;;5.50;1.10;;;;;;;;;;5086210;28;20365;-72
2021/04/13 08:43:11;;;;;;;2.50;0.57;;;;;;;;;;5082410;28;20101;-73
2021/04/13 08:45:44;;;;;;;2.37;0.40;;;;;;;;;;5058947;28;20028;-71
2021/04/13 08:48:31;;;;;;;2.63;0.50;;;;;;;;;;5076517;28;20060;-70
2021/04/13 08:51:23;;;;;;;2.93;0.60;;;;;;;;;;5089313;28;20395;-69
2021/04/13 08:54:03;;;;;;;2.27;0.67;;;;;;;;;;5080458;28;20142;-69
2021/04/13 08:56:29;;;;;;;5.40;1.03;;;;;;;;;;5069529;28;20352;-69
2021/04/13 08:58:57;;;;;;;4.73;1.23;;;;;;;;;;5089870;28;20031;-69
2021/04/13 09:01:25;;;;;;;7.20;0.70;;;;;;;;;;5075848;28;20020;-69
2021/04/13 09:03:50;;;;;;;3.50;0.60;;;;;;;;;;5089872;28;20728;-69
2021/04/13 09:06:26;;;;;;;3.40;0.80;;;;;;;;;;5076531;28;20024;-69
2021/04/13 09:09:01;;;;;;;3.63;0.70;;;;;;;;;;5089731;28;20535;-69
2021/04/13 09:11:28;;;;;;;8.70;1.10;;;;;;;;;;5078105;28;20032;-70
2021/04/13 09:14:02;;;;;;;2.37;0.63;;;;;;;;;;5089692;28;20476;-73
2021/04/13 09:16:30;;;;;;;4.23;0.70;;;;;;;;;;5078819;28;20020;-70
2021/04/13 09:18:57;;;;;;;4.37;0.60;;;;;;;;;;5082424;28;20031;-72
2021/04/13 09:21:35;;;;;;;7.07;1.43;;;;;;;;;;5080412;28;20030;-70
2021/04/13 09:24:07;;;;;;;5.60;0.80;;;;;;;;;;5089491;28;20020;-69
2021/04/13 09:26:50;;;;;;;3.33;1.00;;;;;;;;;;5081506;28;20472;-69
2021/04/13 09:29:45;;;;;;;2.53;0.80;;;;;;;;;;5089465;28;20024;-69
2021/04/13 09:32:31;;;;;;;2.17;0.80;;;;;;;;;;5068617;28;20043;-69
2021/04/13 09:35:00;;;;;;;7.07;0.90;;;;;;;;;;5083422;28;20492;-72
2021/04/13 09:37:34;;;;;;;4.13;0.80;;;;;;;;;;5088521;28;20480;-73
2021/04/13 09:40:02;;;;;;;4.60;0.80;;;;;;;;;;5083898;28;20051;-70
2021/04/13 09:42:30;;;;;;;9.20;0.63;;;;;;;;;;5089164;28;20353;-69
2021/04/13 09:44:55;;;;;;;3.00;0.80;;;;;;;;;;5086409;28;20115;-69
2021/04/13 09:47:53;;;;;;;3.70;0.67;;;;;;;;;;5088584;28;20099;-69
2021/04/13 09:50:31;;;;;;;2.23;0.50;;;;;;;;;;5041648;28;20165;-71
2021/04/13 09:52:59;;;;;;;4.93;0.83;;;;;;;;;;5070490;28;20134;-71
2021/04/13 09:55:43;;;;;;;3.63;0.90;;;;;;;;;;5087952;28;20054;-72
2021/04/13 09:58:18;;;;;;;2.90;0.63;;;;;;;;;;5088440;28;20492;-70
2021/04/13 10:00:48;;;;;;;1.97;0.70;;;;;;;;;;5077319;28;20495;-69
2021/04/13 10:03:19;;;;;;;2.93;0.97;;;;;;;;;;5088604;28;20032;-69
2021/04/13 10:05:46;;;;;;;2.77;0.80;;;;;;;;;;5076459;28;20049;-69
2021/04/13 10:08:11;;;;;;;7.20;1.00;;;;;;;;;;5072318;28;20261;-69
2021/04/13 10:10:39;;;;;;;2.73;0.80;;;;;;;;;;5077958;28;20507;-70
2021/04/13 10:13:23;;;;;;;7.37;1.00;;;;;;;;;;5088403;28;20039;-70
2021/04/13 10:16:08;;;;;;;5.27;1.00;;;;;;;;;;5069754;28;20036;-70
2021/04/13 10:18:42;;;;;;;3.30;0.63;;;;;;;;;;5088709;28;20056;-69
2021/04/13 10:21:14;;;;;;;5.37;1.30;;;;;;;;;;5079840;28;20028;-69
2021/04/13 10:23:50;;;;;;;2.22;0.70;;;;;;;;;;5088980;28;20028;-69
2021/04/13 10:26:34;;;;;;;4.77;1.03;;;;;;;;;;5080596;28;20032;-69
2021/04/13 10:29:13;;;;;;;2.67;0.70;;;;;;;;;;5069746;28;20032;-70
2021/04/13 10:31:57;;;;;;;4.83;0.80;;;;;;;;;;5066368;28;20079;-70
2021/04/13 10:34:37;;;;;;;5.73;0.70;;;;;;;;;;5084973;28;20023;-70
2021/04/13 10:37:21;;;;;;;2.20;0.73;;;;;;;;;;5085425;28;20472;-71
2021/04/13 10:40:05;;;;;;;4.40;0.90;;;;;;;;;;5084147;28;20040;-69
2021/04/13 10:42:33;;;;;;;7.87;0.90;;;;;;;;;;5077296;28;20023;-69
2021/04/13 10:44:59;;;;;;;1.90;0.60;;;;;;;;;;5085432;28;20028;-69
2021/04/13 10:47:50;;;;;;;3.13;0.70;;;;;;;;;;5088078;28;20057;-68
2021/04/13 10:50:25;;;;;;;2.40;0.57;;;;;;;;;;5085482;28;20391;-68
2021/04/13 10:53:09;;;;;;;1.73;0.60;;;;;;;;;;5088158;28;20050;-69
2021/04/13 10:55:41;;;;;;;3.97;0.67;;;;;;;;;;5079303;28;20487;-69
2021/04/13 10:58:15;;;;;;;2.77;1.00;;;;;;;;;;5088454;28;20058;-69
2021/04/13 11:00:41;;;;;;;1.13;0.50;;;;;;;;;;5076086;28;20029;-69
2021/04/13 11:03:21;;;;;;;1.10;0.40;;;;;;;;;;5087044;28;20437;-69
2021/04/13 11:05:55;;;;;;;2.27;0.60;;;;;;;;;;5075924;28;20130;-69
2021/04/13 11:08:40;;;;;;;1.70;0.40;;;;;;;;;;5088453;28;20027;-69
2021/04/13 11:11:23;;;;;;;0.97;0.40;;;;;;;;;;5077258;28;20084;-69
2021/04/13 11:14:07;;;;;;;2.13;0.50;;;;;;;;;;5088152;28;20443;-69
2021/04/13 11:16:57;;;;;;;0.80;0.50;;;;;;;;;;5078707;28;20027;-69
2021/04/13 11:19:28;;;;;;;2.37;0.70;;;;;;;;;;5088039;28;20472;-69
2021/04/13 11:22:13;;;;;;;2.17;0.90;;;;;;;;;;5065981;28;20024;-69
2021/04/13 11:24:45;;;;;;;4.57;0.70;;;;;;;;;;5088895;28;20373;-69
2021/04/13 11:27:29;;;;;;;1.87;0.70;;;;;;;;;;5087866;28;20472;-69
2021/04/13 11:30:10;;;;;;;7.83;0.97;;;;;;;;;;5086358;28;20271;-69
2021/04/13 11:32:36;;;;;;;2.77;0.90;;;;;;;;;;5078493;28;20028;-69
2021/04/13 11:35:17;;;;;;;1.57;0.90;;;;;;;;;;5085969;28;20028;-74
2021/04/13 11:37:57;;;;;;;4.33;0.90;;;;;;;;;;5091447;28;20050;-69
2021/04/13 11:40:38;;;;;;;2.77;0.80;;;;;;;;;;5086290;28;20023;-69
2021/04/13 11:43:05;;;;;;;2.17;0.60;;;;;;;;;;5091378;28;20116;-69
2021/04/13 11:45:53;;;;;;;0.63;0.37;;;;;;;;;;5088616;28;20451;-69
2021/04/13 11:48:37;;;;;;;0.97;0.40;;;;;;;;;;5077223;28;20063;-69
2021/04/13 11:51:15;;;;;;;1.43;0.40;;;;;;;;;;5087681;28;20104;-69
2021/04/13 11:53:45;;;;;;;1.00;0.50;;;;;;;;;;5076539;28;20032;-69
2021/04/13 11:56:22;;;;;;;2.30;0.60;;;;;;;;;;5090514;28;20032;-69
2021/04/13 11:59:06;;;;;;;2.63;0.73;;;;;;;;;;5084574;28;20488;-69
2021/04/13 12:01:32;;;;;;;1.97;0.50;;;;;;;;;;5088482;28;20072;-69
2021/04/13 12:04:03;;;;;;;2.40;0.40;;;;;;;;;;5084868;28;20496;-69
2021/04/13 12:06:47;;;;;;;2.60;0.60;;;;;;;;;;5090032;28;20051;-69
2021/04/13 12:09:32;;;;;;;3.13;0.93;;;;;;;;;;5088441;28;20031;-69
2021/04/13 12:11:58;;;;;;;3.10;0.60;;;;;;;;;;5099955;28;20036;-69
2021/04/13 12:14:30;;;;;;;2.10;0.60;;;;;;;;;;5089933;28;20361;-69
2021/04/13 12:16:55;;;;;;;3.70;0.70;;;;;;;;;;5089247;28;20024;-69
2021/04/13 12:19:22;;;;;;;3.70;0.80;;;;;;;;;;5090087;28;20077;-69
2021/04/13 12:21:52;;;;;;;1.00;0.50;;;;;;;;;;5079099;28;20031;-69
2021/04/13 12:24:36;;;;;;;2.67;0.47;;;;;;;;;;5090445;28;20020;-69
2021/04/13 12:27:20;;;;;;;1.60;0.40;;;;;;;;;;5090526;28;20495;-70
2021/04/13 12:29:45;;;;;;;1.40;0.63;;;;;;;;;;5086288;28;20028;-69
2021/04/13 12:32:13;;;;;;;0.80;0.40;;;;;;;;;;5084611;28;20036;-69
2021/04/13 12:34:58;;;;;;;1.53;0.40;;;;;;;;;;5087154;28;20582;-69
2021/04/13 12:37:42;;;;;;;2.03;0.60;;;;;;;;;;5087124;28;20032;-69
2021/04/13 12:40:16;;;;;;;1.40;0.47;;;;;;;;;;5084257;28;20024;-70
2021/04/13 12:42:43;;;;;;;1.97;0.50;;;;;;;;;;5080807;28;20476;-69
2021/04/13 12:45:18;;;;;;;2.87;0.80;;;;;;;;;;5086780;28;20028;-69
2021/04/13 12:47:45;;;;;;;3.47;0.40;;;;;;;;;;5090066;28;20016;-69
2021/04/13 12:50:14;;;;;;;2.43;0.50;;;;;;;;;;5088093;28;20521;-69
2021/04/13 12:52:40;;;;;;;1.70;0.40;;;;;;;;;;5090190;28;20038;-70
2021/04/13 12:55:12;;;;;;;3.20;0.70;;;;;;;;;;5088557;28;20028;-70
2021/04/13 12:57:50;;;;;;;4.00;0.50;;;;;;;;;;5089718;28;20024;-69
2021/04/13 13:00:16;;;;;;;2.73;0.50;;;;;;;;;;5078107;28;20032;-69
2021/04/13 13:02:48;;;;;;;1.10;0.70;;;;;;;;;;5084649;28;20048;-69
2021/04/13 13:05:33;;;;;;;1.60;0.40;;;;;;;;;;5080853;28;20044;-69
2021/04/13 13:07:59;;;;;;;4.83;0.50;;;;;;;;;;5087699;28;20035;-69
2021/04/13 13:10:26;;;;;;;3.47;0.70;;;;;;;;;;5080110;28;20485;-69
2021/04/13 13:12:52;;;;;;;4.03;0.40;;;;;;;;;;5087758;28;20028;-69
2021/04/13 13:15:17;;;;;;;3.67;0.87;;;;;;;;;;5084100;28;20480;-69
2021/04/13 13:17:44;;;;;;;1.30;0.60;;;;;;;;;;5089693;28;20028;-69
2021/04/13 13:20:12;;;;;;;3.33;0.73;;;;;;;;;;5081813;28;20344;-68
2021/04/13 13:22:45;;;;;;;1.17;0.60;;;;;;;;;;5087801;28;20052;-68
2021/04/13 13:25:12;;;;;;;1.77;0.60;;;;;;;;;;5081518;28;20028;-68
2021/04/13 13:27:38;;;;;;;1.73;0.60;;;;;;;;;;5089100;28;20024;-68
2021/04/13 13:30:05;;;;;;;3.37;0.77;;;;;;;;;;5082925;28;20078;-69
2021/04/13 13:32:33;;;;;;;1.80;0.63;;;;;;;;;;5075918;28;20032;-69
2021/04/13 13:34:59;;;;;;;1.83;0.53;;;;;;;;;;5083076;28;20028;-69
2021/04/13 13:37:27;;;;;;;1.13;0.50;;;;;;;;;;5075492;28;20027;-69
2021/04/13 13:39:54;;;;;;;1.70;0.70;;;;;;;;;;5084158;28;20028;-69
2021/04/13 13:42:20;;;;;;;1.60;0.80;;;;;;;;;;5087838;28;20024;-68
2021/04/13 13:44:49;;;;;;;3.47;0.67;;;;;;;;;;5084366;28;20132;-69
2021/04/13 13:47:23;;;;;;;2.10;0.60;;;;;;;;;;5089074;28;20031;-68
2021/04/13 13:49:51;;;;;;;2.90;0.70;;;;;;;;;;5086542;28;20020;-68
2021/04/13 13:52:35;;;;;;;2.57;0.70;;;;;;;;;;5089194;28;20046;-68
2021/04/13 13:55:08;;;;;;;1.80;0.63;;;;;;;;;;5087222;28;20036;-68
2021/04/13 13:57:36;;;;;;;2.20;0.77;;;;;;;;;;5088992;28;20020;-68
2021/04/13 14:00:03;;;;;;;1.60;0.60;;;;;;;;;;5078789;28;20541;-69
2021/04/13 14:02:31;;;;;;;5.00;0.90;;;;;;;;;;5080944;28;20105;-69
2021/04/13 14:05:14;;;;;;;1.90;0.73;;;;;;;;;;5082555;28;20049;-69
2021/04/13 14:07:40;;;;;;;1.87;0.83;;;;;;;;;;5083882;28;20027;-69
2021/04/13 14:10:13;;;;;;;2.70;0.87;;;;;;;;;;5081496;28;20033;-68
2021/04/13 14:12:40;;;;;;;2.03;0.70;;;;;;;;;;5084158;28;20035;-69
2021/04/13 14:15:19;;;;;;;5.43;0.87;;;;;;;;;;5081882;28;20473;-69
2021/04/13 14:17:58;;;;;;;1.63;0.60;;;;;;;;;;5086640;28;20356;-69
2021/04/13 14:20:24;;;;;;;2.40;0.80;;;;;;;;;;5079690;28;20483;-69
2021/04/13 14:22:52;;;;;;;2.77;1.17;;;;;;;;;;5088035;28;20131;-68
2021/04/13 14:25:26;;;;;;;5.67;0.93;;;;;;;;;;5080284;28;20021;-69
2021/04/13 14:28:17;;;;;;;1.67;0.70;;;;;;;;;;5085058;28;20514;-69
2021/04/13 14:30:43;;;;;;;2.93;0.70;;;;;;;;;;5081028;28;20023;-69
2021/04/13 14:33:09;;;;;;;2.43;0.63;;;;;;;;;;5088642;28;20032;-69
2021/04/13 14:35:34;;;;;;;4.73;0.80;;;;;;;;;;5071445;28;20028;-69
2021/04/13 14:38:05;;;;;;;1.97;0.67;;;;;;;;;;5088153;28;20524;-70
2021/04/13 14:40:31;;;;;;;2.57;0.50;;;;;;;;;;5080627;28;20024;-69
2021/04/13 14:42:57;;;;;;;1.83;0.70;;;;;;;;;;5085995;28;20025;-69
2021/04/13 14:45:23;;;;;;;5.67;0.77;;;;;;;;;;5083766;28;20020;-69
2021/04/13 14:47:53;;;;;;;1.93;0.70;;;;;;;;;;5069698;28;20020;-69
2021/04/13 14:50:20;;;;;;;4.90;0.80;;;;;;;;;;5064299;28;20028;-69
2021/04/13 14:52:49;;;;;;;2.60;0.70;;;;;;;;;;5076041;28;20548;-69
2021/04/13 14:55:17;;;;;;;3.17;0.77;;;;;;;;;;5081416;28;20082;-69
2021/04/13 14:57:42;;;;;;;5.40;0.67;;;;;;;;;;5081668;28;20084;-69
2021/04/13 15:00:11;;;;;;;3.90;0.60;;;;;;;;;;5081856;28;20434;-69
2021/04/13 15:02:37;;;;;;;4.37;0.70;;;;;;;;;;5086932;28;20035;-68
2021/04/13 15:05:03;;;;;;;2.17;0.70;;;;;;;;;;5088112;28;20044;-68
2021/04/13 15:07:28;;;;;;;5.50;1.10;;;;;;;;;;5068148;28;20024;-68
2021/04/13 15:09:53;;;;;;;5.27;0.90;;;;;;;;;;5077601;28;20051;-68
2021/04/13 15:12:19;;;;;;;4.00;0.60;;;;;;;;;;5077983;28;20588;-68
2021/04/13 15:14:45;;;;;;;4.60;0.80;;;;;;;;;;5068073;28;20031;-68
2021/04/13 15:17:12;;;;;;;2.50;0.53;;;;;;;;;;5071717;28;20016;-67
2021/04/13 15:19:37;;;;;;;1.70;0.70;;;;;;;;;;5086939;28;20573;-68